createdAt,value
2023-03-18T00:00:38.773Z,17.88
2023-03-18T00:03:11.501Z,13.38
2023-03-18T00:05:43.450Z,16.27
2023-03-18T00:08:15.278Z,15.05
2023-03-18T00:10:51.259Z,15.02
2023-03-18T00:13:23.107Z,18.48
2023-03-18T00:15:55.235Z,13.68
2023-03-18T00:18:27.490Z,15.25
2023-03-18T00:21:01.066Z,15.85
2023-03-18T00:23:34.022Z,13.35
2023-03-18T00:26:06.807Z,13.32
2023-03-18T00:28:38.635Z,14.25
2023-03-18T00:31:11.968Z,13.07
2023-03-18T00:33:45.905Z,15.60
2023-03-18T00:36:25.603Z,13.68
2023-03-18T00:38:58.130Z,16.88
2023-03-18T00:41:33.106Z,12.13
2023-03-18T00:44:05.842Z,14.10
2023-03-18T00:46:38.316Z,11.60
2023-03-18T00:49:11.054Z,12.10
2023-03-18T00:51:43.118Z,12.02
2023-03-18T00:54:18.715Z,12.00
2023-03-18T00:56:50.730Z,13.25
2023-03-18T00:59:22.622Z,17.40
2023-03-18T01:01:55.274Z,13.57
2023-03-18T01:04:28.118Z,12.15
2023-03-18T01:07:00.023Z,15.68
2023-03-18T01:09:32.149Z,10.95
2023-03-18T01:12:04.441Z,13.23
2023-03-18T01:14:38.127Z,13.25
2023-03-18T01:17:10.750Z,11.68
2023-03-18T01:19:43.574Z,11.43
2023-03-18T01:22:15.928Z,13.02
2023-03-18T01:24:51.826Z,17.00
2023-03-18T01:27:28.566Z,9.30
2023-03-18T01:30:03.878Z,12.45
2023-03-18T01:32:36.267Z,12.73
2023-03-18T01:35:08.615Z,12.63
2023-03-18T01:37:40.538Z,12.48
2023-03-18T01:40:17.331Z,9.35
2023-03-18T01:42:59.895Z,9.90
2023-03-18T01:45:37.021Z,8.98
2023-03-18T01:48:15.608Z,11.60
2023-03-18T01:50:55.867Z,10.82
2023-03-18T01:53:35.680Z,10.45
2023-03-18T01:56:09.092Z,11.05
2023-03-18T01:58:46.019Z,12.88
2023-03-18T02:01:35.255Z,12.77
2023-03-18T02:04:11.049Z,13.07
2023-03-18T02:06:45.886Z,17.25
2023-03-18T02:09:17.790Z,9.65
2023-03-18T02:11:51.816Z,13.00
2023-03-18T02:14:26.976Z,14.20
2023-03-18T02:17:08.534Z,10.30
2023-03-18T02:20:13.148Z,11.50
2023-03-18T02:22:57.622Z,10.57
2023-03-18T02:25:32.806Z,12.45
2023-03-18T02:28:12.401Z,11.93
2023-03-18T02:30:48.976Z,13.10
2023-03-18T02:33:25.979Z,12.18
2023-03-18T02:36:03.369Z,9.52
2023-03-18T02:38:43.053Z,12.60
2023-03-18T02:41:19.756Z,11.93
2023-03-18T02:43:52.264Z,12.35
2023-03-18T02:46:33.001Z,10.32
2023-03-18T02:49:08.037Z,12.25
2023-03-18T02:51:41.909Z,9.57
2023-03-18T02:54:18.303Z,16.92
2023-03-18T02:56:50.991Z,13.90
2023-03-18T02:59:23.588Z,10.50
2023-03-18T03:01:55.810Z,11.27
2023-03-18T03:04:28.489Z,11.82
2023-03-18T03:07:01.633Z,11.43
2023-03-18T03:09:42.565Z,10.82
2023-03-18T03:12:14.521Z,13.07
2023-03-18T03:14:52.760Z,12.88
2023-03-18T03:17:25.426Z,11.70
2023-03-18T03:19:57.966Z,13.93
2023-03-18T03:22:30.384Z,13.68
2023-03-18T03:25:02.329Z,13.80
2023-03-18T03:27:34.127Z,13.00
2023-03-18T03:30:09.679Z,10.57
2023-03-18T03:32:41.649Z,14.05
2023-03-18T03:35:18.059Z,12.10
2023-03-18T03:37:50.400Z,14.00
2023-03-18T03:40:22.416Z,11.45
2023-03-18T03:42:56.272Z,11.25
2023-03-18T03:45:28.622Z,11.00
2023-03-18T03:48:01.608Z,12.52
2023-03-18T03:50:34.040Z,13.98
2023-03-18T03:53:07.847Z,12.00
2023-03-18T03:55:39.748Z,11.70
2023-03-18T03:58:12.044Z,11.35
2023-03-18T04:00:44.850Z,11.95
2023-03-18T04:03:16.763Z,13.15
2023-03-18T04:05:49.489Z,11.60
2023-03-18T04:08:25.215Z,10.95
2023-03-18T04:10:57.864Z,11.45
2023-03-18T04:13:30.056Z,15.75
2023-03-18T04:16:02.104Z,14.60
2023-03-18T04:18:35.326Z,13.80
2023-03-18T04:21:08.854Z,12.05
2023-03-18T04:24:00.527Z,15.38
2023-03-18T04:26:32.947Z,12.88
2023-03-18T04:29:08.666Z,14.50
2023-03-18T04:31:40.717Z,13.07
2023-03-18T04:34:13.694Z,13.38
2023-03-18T04:36:46.067Z,12.25
2023-03-18T04:39:18.103Z,13.45
2023-03-18T04:41:50.214Z,12.18
2023-03-18T04:44:22.079Z,17.27
2023-03-18T04:46:57.062Z,13.82
2023-03-18T04:49:29.872Z,14.88
2023-03-18T04:52:02.412Z,17.60
2023-03-18T04:54:39.129Z,23.98
2023-03-18T04:57:12.684Z,20.20
2023-03-18T04:59:52.526Z,19.85
2023-03-18T05:02:24.728Z,18.38
2023-03-18T05:04:57.565Z,17.75
2023-03-18T05:07:30.029Z,20.13
2023-03-18T05:10:09.016Z,20.15
2023-03-18T05:12:42.122Z,17.92
2023-03-18T05:15:15.691Z,17.83
2023-03-18T05:17:53.720Z,17.58
2023-03-18T05:20:26.483Z,19.10
2023-03-18T05:22:58.816Z,21.40
2023-03-18T05:25:38.603Z,21.50
2023-03-18T05:28:11.448Z,23.40
2023-03-18T05:30:54.133Z,22.77
2023-03-18T05:33:26.010Z,24.42
2023-03-18T05:36:00.831Z,17.80
2023-03-18T05:38:39.987Z,21.65
2023-03-18T05:41:12.785Z,24.67
2023-03-18T05:43:47.557Z,22.52
2023-03-18T05:46:19.815Z,22.10
2023-03-18T05:49:01.416Z,20.70
2023-03-18T05:51:39.345Z,23.67
2023-03-18T05:54:14.195Z,17.80
2023-03-18T05:56:49.859Z,19.50
2023-03-18T05:59:23.855Z,18.20
2023-03-18T06:02:01.645Z,15.77
2023-03-18T06:04:33.569Z,16.75
2023-03-18T06:07:06.190Z,15.38
2023-03-18T06:09:39.469Z,16.90
2023-03-18T06:12:11.506Z,15.50
2023-03-18T06:14:43.909Z,15.00
2023-03-18T06:17:16.525Z,15.88
2023-03-18T06:19:48.580Z,14.68
2023-03-18T06:22:20.605Z,16.48
2023-03-18T06:24:53.687Z,17.30
2023-03-18T06:27:26.126Z,17.67
2023-03-18T06:30:04.630Z,16.65
2023-03-18T06:32:40.385Z,17.25
2023-03-18T06:35:13.227Z,22.17
2023-03-18T06:37:45.189Z,16.90
2023-03-18T06:40:17.448Z,22.40
2023-03-18T06:42:50.164Z,17.23
2023-03-18T06:45:40.282Z,20.92
2023-03-18T06:48:13.812Z,37.80
2023-03-18T06:50:47.841Z,19.13
2023-03-18T06:53:28.090Z,15.10
2023-03-18T06:56:00.465Z,20.60
2023-03-18T06:58:40.840Z,15.55
2023-03-18T07:01:14.364Z,16.65
2023-03-18T07:03:49.854Z,19.33
2023-03-18T07:06:22.744Z,14.15
2023-03-18T07:08:54.699Z,15.45
2023-03-18T07:11:27.344Z,20.55
2023-03-18T07:14:00.610Z,16.33
2023-03-18T07:16:37.064Z,19.23
2023-03-18T07:19:09.929Z,56.20
2023-03-18T07:21:43.013Z,47.08
2023-03-18T07:24:15.018Z,37.80
2023-03-18T07:26:47.227Z,19.48
2023-03-18T07:29:19.576Z,17.42
2023-03-18T07:31:51.460Z,51.88
2023-03-18T07:34:23.408Z,17.48
2023-03-18T07:36:55.720Z,22.73
2023-03-18T07:39:27.735Z,16.60
2023-03-18T07:42:00.349Z,16.15
2023-03-18T07:44:36.073Z,11.20
2023-03-18T07:47:07.978Z,16.95
2023-03-18T07:49:39.896Z,16.50
2023-03-18T07:52:12.254Z,15.77
2023-03-18T07:54:44.271Z,15.20
2023-03-18T07:57:17.242Z,11.38
2023-03-18T07:59:49.515Z,15.00
2023-03-18T08:02:21.874Z,12.80
2023-03-18T08:04:54.274Z,15.35
2023-03-18T08:07:26.404Z,13.02
2023-03-18T08:09:58.338Z,16.30
2023-03-18T08:12:41.649Z,15.05
2023-03-18T08:15:22.505Z,16.35
2023-03-18T08:17:54.407Z,11.55
2023-03-18T08:20:29.998Z,13.65
2023-03-18T08:23:03.865Z,15.38
2023-03-18T08:25:36.043Z,14.90
2023-03-18T08:28:08.328Z,13.07
2023-03-18T08:30:40.675Z,20.02
2023-03-18T08:33:13.065Z,12.20
2023-03-18T08:35:45.984Z,15.23
2023-03-18T08:38:19.223Z,15.93
2023-03-18T08:40:51.622Z,13.43
2023-03-18T08:43:23.976Z,14.95
2023-03-18T08:45:56.598Z,15.88
2023-03-18T08:48:28.475Z,15.07
2023-03-18T08:51:01.366Z,16.00
2023-03-18T08:53:33.223Z,14.48
2023-03-18T08:56:08.873Z,19.02
2023-03-18T08:58:41.114Z,15.45
2023-03-18T09:01:13.336Z,17.13
2023-03-18T09:03:51.960Z,17.00
2023-03-18T09:06:29.655Z,12.68
2023-03-18T09:09:01.519Z,17.50
2023-03-18T09:11:33.858Z,15.05
2023-03-18T09:14:05.695Z,15.27
2023-03-18T09:16:40.964Z,17.42
2023-03-18T09:19:12.932Z,16.52
2023-03-18T09:21:45.923Z,14.90
2023-03-18T09:24:17.873Z,18.40
2023-03-18T09:26:49.695Z,16.48
2023-03-18T09:29:21.673Z,18.25
2023-03-18T09:31:53.611Z,19.13
2023-03-18T09:34:25.422Z,15.15
2023-03-18T09:36:58.222Z,20.63
2023-03-18T09:39:30.281Z,29.05
2023-03-18T09:42:10.627Z,17.58
2023-03-18T09:44:43.852Z,17.52
2023-03-18T09:47:44.426Z,19.75
2023-03-18T09:50:22.514Z,16.80
2023-03-18T09:53:10.767Z,18.77
2023-03-18T09:56:01.646Z,19.40
2023-03-18T09:59:12.519Z,21.08
2023-03-18T10:01:49.392Z,21.13
2023-03-18T10:04:39.845Z,16.48
2023-03-18T10:07:19.205Z,14.35
2023-03-18T10:09:56.203Z,15.10
2023-03-18T10:12:34.262Z,16.60
2023-03-18T10:15:26.161Z,20.88
2023-03-18T10:18:11.276Z,21.23
2023-03-18T10:20:46.482Z,19.55
2023-03-18T10:23:42.736Z,17.50
2023-03-18T10:26:27.044Z,17.60
2023-03-18T10:29:17.853Z,17.20
2023-03-18T10:31:58.940Z,19.10
2023-03-18T10:34:55.866Z,22.27
2023-03-18T10:37:57.443Z,17.67
2023-03-18T10:43:32.298Z,17.58
2023-03-18T10:46:07.456Z,17.30
2023-03-18T10:49:04.606Z,16.60
2023-03-18T10:52:06.146Z,20.60
2023-03-18T10:57:15.942Z,21.00
2023-03-18T10:59:50.359Z,18.85
2023-03-18T11:02:34.932Z,22.65
2023-03-18T11:05:29.728Z,21.88
2023-03-18T11:08:03.677Z,20.73
2023-03-18T11:10:46.807Z,17.98
2023-03-18T11:13:20.564Z,20.52
2023-03-18T11:15:56.715Z,19.80
2023-03-18T11:18:29.515Z,21.30
2023-03-18T11:21:04.692Z,20.77
2023-03-18T11:24:00.949Z,21.45
2023-03-18T11:26:45.750Z,18.35
2023-03-18T11:29:20.593Z,23.48
2023-03-18T11:32:00.345Z,21.63
2023-03-18T11:34:35.222Z,19.73
2023-03-18T11:37:11.783Z,21.15
2023-03-18T11:39:43.802Z,20.75
2023-03-18T11:42:22.208Z,23.08
2023-03-18T11:45:02.748Z,20.23
2023-03-18T11:47:36.589Z,19.93
2023-03-18T11:50:17.806Z,20.98
2023-03-18T11:55:39.366Z,19.60
2023-03-18T11:58:34.165Z,20.20
2023-03-18T12:01:26.695Z,20.95
2023-03-18T12:04:16.727Z,21.88
2023-03-18T12:07:20.526Z,22.38
2023-03-18T12:10:24.315Z,19.60
2023-03-18T12:13:15.692Z,25.70
2023-03-18T12:16:04.134Z,21.70
2023-03-18T12:18:53.104Z,23.77
2023-03-18T12:21:39.510Z,22.60
2023-03-18T12:24:21.052Z,24.67
2023-03-18T12:27:26.160Z,24.70
2023-03-18T12:30:10.037Z,22.65
2023-03-18T12:32:52.083Z,22.77
2023-03-18T12:35:45.056Z,23.23
2023-03-18T12:38:40.866Z,23.40
2023-03-18T12:41:18.504Z,21.10
2023-03-18T12:44:11.974Z,25.60
2023-03-18T12:47:00.627Z,24.08
2023-03-18T12:49:44.758Z,24.38
2023-03-18T12:52:36.518Z,22.45
2023-03-18T12:55:21.728Z,24.88
2023-03-18T12:58:01.432Z,23.92
2023-03-18T13:01:08.168Z,21.08
2023-03-18T13:03:42.932Z,24.42
2023-03-18T13:06:26.670Z,21.88
2023-03-18T13:09:13.341Z,24.63
2023-03-18T13:12:22.391Z,24.38
2023-03-18T13:15:45.329Z,23.02
2023-03-18T13:18:48.558Z,25.20
2023-03-18T13:21:24.517Z,22.02
2023-03-18T13:24:04.804Z,23.80
2023-03-18T13:26:58.076Z,25.60
2023-03-18T13:29:46.971Z,23.80
2023-03-18T13:32:55.932Z,25.00
2023-03-18T13:35:44.899Z,24.83
2023-03-18T13:38:25.739Z,23.55
2023-03-18T13:41:18.000Z,25.38
2023-03-18T13:43:51.208Z,23.30
2023-03-18T13:46:27.301Z,23.48
2023-03-18T13:49:01.932Z,24.67
2023-03-18T13:51:34.248Z,24.70
2023-03-18T13:54:15.457Z,26.70
2023-03-18T13:56:52.952Z,25.90
2023-03-18T13:59:34.206Z,23.02
2023-03-18T14:02:31.304Z,24.60
2023-03-18T14:05:04.134Z,40.70
2023-03-18T14:07:48.030Z,34.75
2023-03-18T14:10:20.649Z,25.38
2023-03-18T14:12:52.741Z,23.98
2023-03-18T14:15:41.806Z,25.98
2023-03-18T14:18:27.272Z,26.15
2023-03-18T14:21:02.678Z,30.30
2023-03-18T14:24:02.597Z,26.73
2023-03-18T14:26:34.534Z,23.08
2023-03-18T14:29:06.397Z,25.88
2023-03-18T14:31:43.706Z,25.65
2023-03-18T14:34:18.891Z,23.45
2023-03-18T14:36:53.558Z,24.10
2023-03-18T14:39:46.652Z,28.60
2023-03-18T14:42:42.840Z,29.45
2023-03-18T14:45:23.580Z,26.73
2023-03-18T14:47:57.769Z,27.20
2023-03-18T14:50:35.916Z,73.15
2023-03-18T14:53:29.025Z,33.50
2023-03-18T14:56:03.828Z,32.90
2023-03-18T14:58:35.863Z,28.63
2023-03-18T15:01:10.959Z,27.02
2023-03-18T15:03:46.308Z,26.60
2023-03-18T15:06:26.819Z,38.40
2023-03-18T15:09:05.997Z,35.53
2023-03-18T15:11:39.974Z,33.38
2023-03-18T15:14:17.958Z,29.85
2023-03-18T15:16:52.189Z,27.00
2023-03-18T15:19:24.949Z,24.70
2023-03-18T15:22:05.770Z,25.27
2023-03-18T15:24:37.752Z,27.15
2023-03-18T15:27:17.862Z,25.98
2023-03-18T15:29:54.202Z,25.60
2023-03-18T15:32:31.540Z,24.67
2023-03-18T15:35:26.383Z,24.55
2023-03-18T15:38:11.003Z,26.25
2023-03-18T15:40:50.402Z,26.50
2023-03-18T15:43:45.020Z,35.75
2023-03-18T15:46:30.994Z,26.27
2023-03-18T15:49:05.685Z,26.38
2023-03-18T15:51:49.770Z,25.77
2023-03-18T15:54:28.658Z,26.95
2023-03-18T15:57:12.508Z,29.05
2023-03-18T15:59:44.487Z,24.90
2023-03-18T16:02:18.747Z,24.95
2023-03-18T16:04:50.616Z,23.92
2023-03-18T16:07:26.736Z,29.75
2023-03-18T16:09:58.607Z,27.65
2023-03-18T16:12:33.633Z,24.13
2023-03-18T16:15:07.694Z,24.17
2023-03-18T16:17:39.754Z,30.20
2023-03-18T16:20:19.228Z,28.05
2023-03-18T16:22:51.969Z,29.48
2023-03-18T16:25:27.913Z,25.55
2023-03-18T16:28:00.698Z,23.95
2023-03-18T16:30:33.928Z,26.92
2023-03-18T16:33:09.326Z,27.73
2023-03-18T16:35:45.632Z,26.05
2023-03-18T16:38:18.202Z,25.08
2023-03-18T16:40:54.855Z,26.35
2023-03-18T16:43:29.161Z,27.38
2023-03-18T16:46:05.836Z,27.25
2023-03-18T16:48:38.073Z,27.25
2023-03-18T16:51:10.735Z,27.98
2023-03-18T16:53:44.005Z,30.23
2023-03-18T16:56:22.105Z,37.67
2023-03-18T16:58:58.021Z,38.53
2023-03-18T17:01:30.294Z,30.58
2023-03-18T17:04:12.609Z,33.45
2023-03-18T17:06:47.677Z,29.63
2023-03-18T17:09:19.664Z,31.88
2023-03-18T17:11:53.891Z,40.13
2023-03-18T17:14:39.758Z,39.72
2023-03-18T17:17:22.485Z,40.05
2023-03-18T17:19:56.107Z,35.53
2023-03-18T17:22:30.817Z,33.28
2023-03-18T17:25:02.769Z,36.17
2023-03-18T17:27:49.698Z,32.78
2023-03-18T17:30:22.953Z,30.30
2023-03-18T17:32:55.589Z,128.88
2023-03-18T17:35:27.728Z,165.50
2023-03-18T17:37:59.754Z,75.20
2023-03-18T17:40:33.041Z,46.25
2023-03-18T17:43:04.839Z,35.67
2023-03-18T17:45:36.657Z,34.25
2023-03-18T17:48:26.399Z,31.83
2023-03-18T17:51:01.074Z,29.33
2023-03-18T17:53:42.930Z,37.33
2023-03-18T17:56:17.344Z,31.25
2023-03-18T17:58:51.488Z,34.35
2023-03-18T18:01:28.559Z,32.38
2023-03-18T18:04:04.962Z,32.25
2023-03-18T18:06:36.962Z,35.55
2023-03-18T18:09:13.334Z,30.35
2023-03-18T18:11:47.044Z,32.25
2023-03-18T18:14:26.047Z,47.83
2023-03-18T18:17:02.614Z,33.50
2023-03-18T18:19:37.112Z,38.35
2023-03-18T18:22:19.038Z,33.30
2023-03-18T18:24:52.866Z,37.00
2023-03-18T18:27:24.779Z,37.83
2023-03-18T18:29:56.747Z,35.22
2023-03-18T18:32:28.809Z,38.10
2023-03-18T18:35:00.608Z,33.85
2023-03-18T18:37:33.670Z,35.10
2023-03-18T18:40:06.847Z,34.97
2023-03-18T18:42:40.921Z,45.83
2023-03-18T18:45:19.270Z,40.90
2023-03-18T18:47:51.796Z,40.70
2023-03-18T18:50:39.837Z,40.25
2023-03-18T18:53:20.042Z,44.20
2023-03-18T18:56:01.039Z,37.80
2023-03-18T18:58:33.789Z,44.88
2023-03-18T19:01:06.463Z,41.75
2023-03-18T19:03:39.022Z,42.40
2023-03-18T19:06:40.933Z,36.47
2023-03-18T19:09:39.110Z,37.38
2023-03-18T19:12:15.883Z,41.97
2023-03-18T19:14:48.009Z,70.45
2023-03-18T19:17:21.853Z,40.33
2023-03-18T19:19:53.764Z,68.60
2023-03-18T19:22:26.290Z,123.43
2023-03-18T19:24:58.757Z,104.57
2023-03-18T19:27:32.474Z,64.25
2023-03-18T19:30:23.586Z,89.10
2023-03-18T19:32:55.957Z,113.82
2023-03-18T19:35:28.994Z,60.33
2023-03-18T19:38:01.064Z,49.85
2023-03-18T19:40:34.135Z,50.95
2023-03-18T19:43:18.341Z,51.15
2023-03-18T19:45:51.921Z,52.80
2023-03-18T19:48:28.882Z,40.30
2023-03-18T19:51:01.393Z,35.40
2023-03-18T19:53:33.977Z,37.00
2023-03-18T19:56:08.544Z,34.00
2023-03-18T19:58:41.441Z,35.92
2023-03-18T20:01:13.544Z,37.25
2023-03-18T20:03:45.758Z,39.08
2023-03-18T20:06:17.788Z,40.55
2023-03-18T20:08:50.488Z,37.78
2023-03-18T20:11:22.773Z,40.30
2023-03-18T20:13:54.788Z,35.20
2023-03-18T20:16:28.486Z,34.85
2023-03-18T20:19:00.672Z,35.60
2023-03-18T20:21:34.936Z,36.13
2023-03-18T20:24:10.585Z,30.08
2023-03-18T20:26:43.085Z,26.26
2023-03-18T20:29:19.998Z,28.95
2023-03-18T20:31:52.090Z,33.70
2023-03-18T20:34:24.014Z,35.25
2023-03-18T20:36:55.994Z,32.63
2023-03-18T20:39:27.865Z,33.17
2023-03-18T20:41:59.743Z,31.45
2023-03-18T20:44:33.161Z,30.70
2023-03-18T20:47:05.079Z,32.13
2023-03-18T20:49:38.023Z,35.08
2023-03-18T20:52:26.642Z,34.67
2023-03-18T20:54:58.925Z,33.55
2023-03-18T20:57:30.804Z,34.53
2023-03-18T21:00:07.015Z,32.40
2023-03-18T21:02:38.901Z,30.90
2023-03-18T21:05:11.175Z,31.13
2023-03-18T21:07:43.644Z,33.05
2023-03-18T21:10:22.126Z,31.90
2023-03-18T21:12:54.421Z,32.85
2023-03-18T21:15:28.182Z,29.23
2023-03-18T21:17:59.972Z,31.25
2023-03-18T21:20:32.652Z,27.83
2023-03-18T21:23:04.577Z,27.02
2023-03-18T21:25:36.511Z,30.67
2023-03-18T21:28:14.467Z,27.25
2023-03-18T21:30:48.984Z,28.45
2023-03-18T21:33:29.519Z,26.80
2023-03-18T21:36:02.871Z,26.00
2023-03-18T21:38:35.043Z,26.40
2023-03-18T21:41:21.269Z,30.52
2023-03-18T21:43:53.493Z,24.58
2023-03-18T21:46:27.183Z,28.13
2023-03-18T21:48:59.250Z,31.73
2023-03-18T21:51:41.155Z,26.38
2023-03-18T21:54:18.792Z,28.60
2023-03-18T21:56:50.717Z,29.63
2023-03-18T21:59:23.229Z,29.90
2023-03-18T22:01:55.367Z,26.77
2023-03-18T22:04:27.377Z,27.52
2023-03-18T22:06:59.354Z,30.77
2023-03-18T22:09:31.411Z,30.02
2023-03-18T22:12:03.391Z,27.70
2023-03-18T22:14:35.164Z,28.50
2023-03-18T22:17:27.204Z,31.27
2023-03-18T22:20:01.444Z,28.13
2023-03-18T22:22:37.060Z,24.52
2023-03-18T22:25:32.452Z,31.55
2023-03-18T22:28:05.096Z,25.27
2023-03-18T22:30:37.050Z,31.27
2023-03-18T22:33:17.140Z,26.95
2023-03-18T22:35:49.230Z,28.13
2023-03-18T22:38:22.335Z,28.10
2023-03-18T22:40:56.413Z,25.92
2023-03-18T22:43:31.640Z,25.23
2023-03-18T22:46:09.146Z,26.10
2023-03-18T22:48:41.221Z,27.02
2023-03-18T22:51:24.640Z,27.20
2023-03-18T22:53:56.794Z,25.48
2023-03-18T22:56:32.121Z,29.05
2023-03-18T22:59:04.590Z,24.98
2023-03-18T23:01:37.338Z,29.15
2023-03-18T23:04:12.220Z,27.90
2023-03-18T23:06:44.171Z,31.88
2023-03-18T23:09:16.274Z,28.40
2023-03-18T23:11:48.156Z,31.05
2023-03-18T23:14:19.942Z,32.90
2023-03-18T23:16:51.719Z,31.38
2023-03-18T23:19:23.565Z,38.05
2023-03-18T23:21:55.705Z,33.25
2023-03-18T23:24:27.522Z,33.28
2023-03-18T23:26:59.398Z,31.73
2023-03-18T23:29:31.524Z,30.30
2023-03-18T23:32:03.931Z,32.25
2023-03-18T23:34:35.870Z,31.67
2023-03-18T23:37:08.019Z,28.30
2023-03-18T23:39:43.093Z,29.83
2023-03-18T23:42:19.921Z,28.77
2023-03-18T23:44:52.126Z,30.23
2023-03-18T23:47:23.976Z,32.90
2023-03-18T23:49:55.963Z,32.53
2023-03-18T23:52:27.787Z,29.02
2023-03-18T23:54:59.764Z,35.17
2023-03-18T23:57:31.570Z,31.10
